Time;durP1;ratioP1;P1;durP2;ratioP2;P2;SDS_P1;SDS_P2;PMS_P1;PMS_P2;Temp;Humidity;BMP_temperature;BMP_pressure;BME280_temperature;BME280_humidity;BME280_pressure;Samples;Min_cycle;Max_cycle;Signal;HPM_P1;HPM_P2
2023/08/07 00:00:26;;;;;;;4.60;1.00;;;12.60;1.00;;;;;;4994296;28;20399;-78
2023/08/07 00:02:52;;;;;;;4.50;0.87;;;12.60;1.00;;;;;;4997856;28;20514;-79
2023/08/07 00:05:17;;;;;;;4.00;0.80;;;12.60;1.00;;;;;;4996912;28;20425;-78
2023/08/07 00:07:43;;;;;;;4.70;0.90;;;12.60;1.00;;;;;;5006744;28;20488;-78
2023/08/07 00:10:09;;;;;;;4.07;0.77;;;12.60;1.00;;;;;;5015661;28;20417;-78
2023/08/07 00:12:35;;;;;;;4.30;0.70;;;12.70;1.00;;;;;;5001074;28;20457;-78
2023/08/07 00:15:18;;;;;;;3.97;0.65;;;12.70;1.00;;;;;;5091880;28;20391;-78
2023/08/07 00:17:43;;;;;;;3.90;0.60;;;12.70;1.00;;;;;;5089368;28;20462;-78
2023/08/07 00:20:09;;;;;;;5.18;1.13;;;12.60;1.00;;;;;;5058411;28;20934;-78
2023/08/07 00:22:35;;;;;;;4.40;0.80;;;12.60;1.00;;;;;;5069449;28;20769;-78
2023/08/07 00:25:01;;;;;;;6.95;0.80;;;12.60;1.00;;;;;;5071807;28;20919;-78
2023/08/07 00:27:26;;;;;;;5.13;1.07;;;12.60;1.00;;;;;;5090546;28;20411;-78
2023/08/07 00:29:52;;;;;;;13.00;1.30;;;12.70;1.00;;;;;;5088905;28;20405;-78
2023/08/07 00:32:17;;;;;;;4.63;0.87;;;12.70;1.00;;;;;;5075183;28;20951;-78
2023/08/07 00:34:43;;;;;;;5.53;1.15;;;12.70;1.00;;;;;;5075416;28;20749;-78
2023/08/07 00:37:09;;;;;;;6.25;1.00;;;12.70;1.00;;;;;;5071746;28;20451;-78
2023/08/07 00:39:34;;;;;;;4.40;0.97;;;12.70;1.00;;;;;;5065452;28;20896;-78
2023/08/07 00:42:00;;;;;;;4.57;0.93;;;12.80;1.00;;;;;;5069308;28;20793;-78
2023/08/07 00:44:25;;;;;;;4.75;0.90;;;12.80;1.00;;;;;;5067149;28;20393;-78
2023/08/07 00:46:51;;;;;;;4.30;0.70;;;12.80;1.00;;;;;;5076002;28;20491;-78
2023/08/07 00:49:19;;;;;;;5.00;1.02;;;12.70;1.00;;;;;;5082262;28;20413;-78
2023/08/07 00:51:45;;;;;;;5.50;1.13;;;12.90;1.00;;;;;;5080939;28;20420;-78
2023/08/07 00:54:17;;;;;;;4.30;0.80;;;12.80;1.00;;;;;;5076190;28;20914;-78
2023/08/07 00:56:43;;;;;;;4.30;0.68;;;12.80;1.00;;;;;;5089323;28;20391;-78
2023/08/07 00:59:09;;;;;;;5.50;1.02;;;12.80;1.00;;;;;;5089693;28;20452;-78
2023/08/07 01:01:36;;;;;;;4.60;1.00;;;12.80;1.00;;;;;;5082622;28;20407;-79
2023/08/07 01:04:01;;;;;;;4.25;0.90;;;12.80;1.00;;;;;;5083879;28;20409;-78
2023/08/07 01:06:27;;;;;;;4.90;0.70;;;12.80;1.00;;;;;;5056562;28;20407;-78
2023/08/07 01:08:53;;;;;;;4.30;0.80;;;12.70;1.00;;;;;;5078145;28;20391;-78
2023/08/07 01:11:34;;;;;;;5.67;1.17;;;12.80;1.00;;;;;;5090300;28;20820;-78
2023/08/07 01:14:10;;;;;;;4.80;1.10;;;12.80;1.00;;;;;;5093136;28;20486;-78
2023/08/07 01:16:53;;;;;;;4.47;0.80;;;12.80;1.00;;;;;;5095276;28;20412;-78
2023/08/07 01:19:26;;;;;;;4.60;1.10;;;12.70;1.00;;;;;;5094951;28;20387;-78
2023/08/07 01:22:24;;;;;;;7.05;1.20;;;12.70;1.00;;;;;;5089115;28;20387;-78
2023/08/07 01:24:51;;;;;;;4.43;0.80;;;12.80;1.00;;;;;;4999391;28;20436;-78
2023/08/07 01:27:36;;;;;;;4.20;1.10;;;12.90;1.00;;;;;;5079576;28;20465;-78
2023/08/07 01:30:14;;;;;;;7.40;1.40;;;12.80;1.00;;;;;;5092426;28;20409;-78
2023/08/07 01:33:16;;;;;;;4.87;1.20;;;12.90;1.00;;;;;;5094507;28;20451;-78
2023/08/07 01:35:52;;;;;;;4.28;0.82;;;12.80;1.00;;;;;;5094086;28;20688;-78
2023/08/07 01:38:20;;;;;;;3.95;0.68;;;12.70;1.00;;;;;;5070265;28;20434;-78
2023/08/07 01:40:47;;;;;;;5.30;1.10;;;12.70;1.00;;;;;;5080372;28;20407;-78
2023/08/07 01:43:13;;;;;;;6.90;1.27;;;12.70;1.00;;;;;;5083226;28;20412;-78
2023/08/07 01:45:38;;;;;;;5.27;1.10;;;12.60;1.00;;;;;;5068355;28;20401;-78
2023/08/07 01:48:04;;;;;;;6.00;1.20;;;12.60;1.00;;;;;;5059958;28;20433;-79
2023/08/07 01:50:30;;;;;;;6.85;0.68;;;12.70;1.00;;;;;;5086990;28;20488;-78
2023/08/07 01:52:55;;;;;;;4.20;0.70;;;12.60;1.00;;;;;;5090146;28;20402;-78
2023/08/07 01:55:22;;;;;;;4.70;0.80;;;12.60;1.00;;;;;;5071347;28;20413;-78
2023/08/07 01:57:48;;;;;;;7.47;1.23;;;12.60;1.00;;;;;;5079210;28;20422;-79
2023/08/07 02:00:13;;;;;;;5.57;1.00;;;12.70;1.00;;;;;;5079817;28;20388;-78
2023/08/07 02:02:39;;;;;;;7.72;0.90;;;12.70;1.00;;;;;;5080293;28;20396;-79
2023/08/07 02:05:06;;;;;;;4.10;0.90;;;12.60;1.00;;;;;;5081155;28;20424;-78
2023/08/07 02:07:31;;;;;;;5.43;1.23;;;12.70;1.00;;;;;;5080625;28;20865;-78
2023/08/07 02:09:58;;;;;;;4.07;0.67;;;12.70;1.00;;;;;;5081912;28;20485;-79
2023/08/07 02:12:25;;;;;;;4.97;1.10;;;12.60;99.90;;;;;;5080237;28;20461;-78
2023/08/07 02:14:50;;;;;;;4.07;0.70;;;12.70;99.90;;;;;;5078670;28;20504;-78
2023/08/07 02:17:16;;;;;;;4.50;0.90;;;12.60;1.00;;;;;;5074904;28;20874;-78
2023/08/07 02:19:41;;;;;;;4.80;0.80;;;12.60;99.90;;;;;;5072535;28;20709;-78
2023/08/07 02:22:07;;;;;;;4.70;1.30;;;12.60;1.00;;;;;;5072079;28;20461;-78
2023/08/07 02:24:32;;;;;;;5.20;1.10;;;12.60;1.00;;;;;;5071781;28;20395;-78
2023/08/07 02:26:58;;;;;;;4.53;0.95;;;12.50;1.00;;;;;;5072313;28;20436;-78
2023/08/07 02:29:23;;;;;;;4.80;1.07;;;12.60;1.00;;;;;;5061879;28;20446;-78
2023/08/07 02:31:49;;;;;;;6.20;0.90;;;12.60;1.00;;;;;;5089972;28;20531;-78
2023/08/07 02:34:14;;;;;;;4.23;0.70;;;12.60;1.00;;;;;;5071690;28;20979;-79
2023/08/07 02:36:40;;;;;;;6.05;1.30;;;12.40;1.00;;;;;;5050170;28;20410;-79
2023/08/07 02:39:07;;;;;;;4.30;1.00;;;12.50;1.00;;;;;;5054228;28;20810;-78
2023/08/07 02:41:32;;;;;;;4.22;0.73;;;12.50;1.00;;;;;;5070475;28;20394;-79
2023/08/07 02:43:58;;;;;;;5.20;1.40;;;12.50;1.00;;;;;;5079144;28;20485;-79
2023/08/07 02:46:24;;;;;;;6.60;1.10;;;12.50;1.00;;;;;;5092891;28;20393;-79
2023/08/07 02:48:49;;;;;;;5.60;0.70;;;12.60;1.00;;;;;;5086650;28;20409;-79
2023/08/07 02:51:15;;;;;;;4.90;0.90;;;12.40;1.00;;;;;;5090441;28;20389;-79
2023/08/07 02:53:40;;;;;;;4.40;0.70;;;12.40;1.00;;;;;;5085258;28;20433;-78
2023/08/07 02:56:06;;;;;;;6.43;1.10;;;12.40;1.00;;;;;;5087218;28;20417;-78
2023/08/07 02:58:31;;;;;;;5.10;1.00;;;12.40;1.00;;;;;;5088486;28;20435;-78
2023/08/07 03:01:02;;;;;;;6.60;1.03;;;12.40;1.00;;;;;;5089178;28;20398;-78
2023/08/07 03:03:27;;;;;;;5.53;1.00;;;12.30;1.00;;;;;;5086640;28;20409;-78
2023/08/07 03:05:53;;;;;;;5.53;1.00;;;12.30;1.00;;;;;;5090342;28;20445;-78
2023/08/07 03:08:19;;;;;;;5.65;1.30;;;12.30;1.00;;;;;;5088437;28;20405;-78
2023/08/07 03:10:58;;;;;;;4.72;1.05;;;12.30;1.00;;;;;;5089950;28;20826;-78
2023/08/07 03:13:27;;;;;;;6.90;1.13;;;12.30;1.00;;;;;;5081569;28;20902;-78
2023/08/07 03:16:00;;;;;;;5.30;1.10;;;12.20;1.00;;;;;;5069328;28;20491;-79
2023/08/07 03:18:25;;;;;;;4.53;0.80;;;12.30;1.00;;;;;;5088935;28;20497;-78
2023/08/07 03:20:51;;;;;;;10.43;1.20;;;12.30;1.00;;;;;;5087479;28;20504;-79
2023/08/07 03:23:16;;;;;;;6.30;1.10;;;12.30;1.00;;;;;;5088849;28;20398;-78
2023/08/07 03:25:42;;;;;;;5.23;1.10;;;12.30;1.00;;;;;;5088786;28;20398;-78
2023/08/07 03:28:07;;;;;;;5.50;1.00;;;12.30;1.00;;;;;;5078917;28;20466;-78
2023/08/07 03:30:33;;;;;;;4.65;0.95;;;12.40;99.90;;;;;;5075808;28;20410;-79
2023/08/07 03:32:58;;;;;;;4.10;0.60;;;12.40;1.00;;;;;;5067108;28;20854;-78
2023/08/07 03:35:24;;;;;;;4.87;0.90;;;12.40;1.00;;;;;;5088066;28;20393;-78
2023/08/07 03:37:49;;;;;;;5.65;1.10;;;12.40;1.00;;;;;;5088071;28;20890;-78
2023/08/07 03:40:15;;;;;;;5.70;0.70;;;12.50;1.00;;;;;;5087015;28;20386;-78
2023/08/07 03:42:40;;;;;;;6.20;1.10;;;12.40;1.00;;;;;;5070719;28;20416;-78
2023/08/07 03:45:06;;;;;;;4.20;0.88;;;12.40;1.00;;;;;;5089177;28;20735;-78
2023/08/07 03:47:32;;;;;;;4.20;0.70;;;12.40;99.90;;;;;;5089438;28;20382;-78
2023/08/07 03:49:57;;;;;;;6.10;1.02;;;12.40;1.00;;;;;;5097809;28;20382;-78
2023/08/07 03:52:23;;;;;;;4.30;0.80;;;12.40;1.00;;;;;;5074581;28;20442;-79
2023/08/07 03:54:48;;;;;;;3.97;0.60;;;12.50;1.00;;;;;;5069845;28;20414;-78
2023/08/07 03:57:14;;;;;;;4.10;0.70;;;12.50;99.90;;;;;;5083142;28;20406;-78
2023/08/07 03:59:39;;;;;;;4.30;0.83;;;12.40;1.00;;;;;;5068645;28;20403;-78
2023/08/07 04:02:05;;;;;;;5.97;0.77;;;12.50;1.00;;;;;;5066271;28;20410;-78
2023/08/07 04:04:31;;;;;;;7.68;0.77;;;12.40;1.00;;;;;;5088687;28;21218;-78
2023/08/07 04:06:56;;;;;;;5.73;1.13;;;12.50;99.90;;;;;;5088589;28;20777;-79
2023/08/07 04:09:22;;;;;;;7.60;1.00;;;12.50;99.90;;;;;;5089871;28;20486;-79
2023/08/07 04:11:47;;;;;;;4.63;1.13;;;12.50;99.90;;;;;;5074128;28;20759;-79
2023/08/07 04:14:13;;;;;;;4.20;0.70;;;12.50;99.90;;;;;;5083298;28;20494;-79
2023/08/07 04:16:38;;;;;;;5.00;0.90;;;12.50;99.90;;;;;;5083598;28;20489;-79
2023/08/07 04:19:04;;;;;;;4.00;0.60;;;12.60;99.90;;;;;;5088833;28;20891;-78
2023/08/07 04:21:30;;;;;;;4.55;1.00;;;12.60;99.90;;;;;;5086330;28;20405;-79
2023/08/07 04:23:56;;;;;;;4.00;0.50;;;12.70;99.90;;;;;;5077082;28;20793;-79
2023/08/07 04:26:21;;;;;;;4.63;0.87;;;12.60;99.90;;;;;;5086792;28;20409;-78
2023/08/07 04:28:47;;;;;;;4.40;1.10;;;12.50;99.90;;;;;;5088226;28;20416;-79
2023/08/07 04:31:12;;;;;;;10.00;1.20;;;12.70;99.90;;;;;;5089691;28;20401;-79
2023/08/07 04:33:40;;;;;;;4.50;1.00;;;12.70;99.90;;;;;;5069558;28;20421;-78
2023/08/07 04:36:05;;;;;;;4.57;1.00;;;12.60;99.90;;;;;;5087006;28;21476;-77
2023/08/07 04:38:31;;;;;;;6.67;1.20;;;12.60;99.90;;;;;;5081139;28;20400;-78
2023/08/07 04:40:56;;;;;;;4.80;0.60;;;12.60;99.90;;;;;;5079618;28;20403;-78
2023/08/07 04:43:22;;;;;;;5.90;1.10;;;12.60;99.90;;;;;;5068010;28;20488;-77
2023/08/07 04:45:48;;;;;;;6.10;1.10;;;12.60;99.90;;;;;;5069245;28;20384;-80
2023/08/07 04:48:14;;;;;;;4.30;0.70;;;12.60;99.90;;;;;;5068919;28;20396;-78
2023/08/07 04:50:40;;;;;;;5.10;1.05;;;12.60;99.90;;;;;;5068609;28;20407;-77
2023/08/07 04:53:05;;;;;;;4.47;1.00;;;12.70;99.90;;;;;;5068107;28;20812;-77
2023/08/07 04:55:31;;;;;;;5.93;0.70;;;12.70;99.90;;;;;;5068899;28;20411;-78
2023/08/07 04:57:57;;;;;;;4.80;0.90;;;12.70;99.90;;;;;;5068409;28;20427;-78
2023/08/07 05:00:23;;;;;;;5.70;1.00;;;12.70;99.90;;;;;;5069343;28;20453;-78
2023/08/07 05:02:49;;;;;;;5.15;0.90;;;12.80;99.90;;;;;;5071868;28;20879;-78
2023/08/07 05:05:15;;;;;;;6.00;0.97;;;12.70;99.90;;;;;;5071978;28;20756;-78
2023/08/07 05:07:41;;;;;;;4.68;1.08;;;12.80;99.90;;;;;;5072037;28;20388;-78
2023/08/07 05:10:08;;;;;;;13.88;1.20;;;12.80;99.90;;;;;;5067454;28;20409;-78
2023/08/07 05:12:34;;;;;;;4.90;1.10;;;12.90;99.90;;;;;;5088361;28;20781;-78
2023/08/07 05:14:59;;;;;;;5.60;0.80;;;12.90;99.90;;;;;;5071380;28;20477;-78
2023/08/07 05:17:25;;;;;;;4.75;0.90;;;12.90;99.90;;;;;;5052413;28;20474;-78
2023/08/07 05:19:50;;;;;;;6.38;1.33;;;13.00;99.90;;;;;;5079314;28;20451;-77
2023/08/07 05:22:16;;;;;;;6.10;1.10;;;13.00;99.90;;;;;;5089806;28;20402;-78
2023/08/07 05:24:43;;;;;;;5.00;1.10;;;13.00;99.90;;;;;;5089630;28;20949;-78
2023/08/07 05:27:09;;;;;;;9.95;1.25;;;13.10;99.90;;;;;;5090709;28;20479;-78
2023/08/07 05:29:42;;;;;;;7.63;1.40;;;13.00;99.90;;;;;;5084790;28;20455;-78
2023/08/07 05:32:08;;;;;;;6.13;1.30;;;13.20;99.90;;;;;;5072505;28;20399;-77
2023/08/07 05:34:34;;;;;;;5.40;1.05;;;13.20;99.90;;;;;;5079078;28;20476;-78
2023/08/07 05:36:59;;;;;;;4.60;0.80;;;13.20;1.00;;;;;;5072992;28;20403;-77
2023/08/07 05:39:25;;;;;;;4.60;1.07;;;13.10;1.00;;;;;;5060063;28;20406;-78
2023/08/07 05:41:53;;;;;;;5.38;0.80;;;13.20;1.00;;;;;;5081065;28;20886;-78
2023/08/07 05:44:19;;;;;;;4.80;1.15;;;13.30;1.00;;;;;;5083261;28;20394;-77
2023/08/07 05:46:44;;;;;;;5.20;0.83;;;13.50;99.90;;;;;;5087624;28;20475;-78
2023/08/07 05:49:10;;;;;;;9.80;1.30;;;13.50;1.00;;;;;;5050451;28;20401;-78
2023/08/07 05:51:35;;;;;;;5.00;0.82;;;13.60;99.90;;;;;;5050264;28;20384;-78
2023/08/07 05:54:01;;;;;;;6.00;1.17;;;13.70;1.00;;;;;;5078077;28;20483;-78
2023/08/07 05:56:26;;;;;;;4.80;0.80;;;13.90;99.90;;;;;;5073256;28;20423;-77
2023/08/07 05:58:52;;;;;;;5.60;1.20;;;14.10;1.00;;;;;;5070946;28;20394;-77
2023/08/07 06:01:17;;;;;;;6.38;1.20;;;14.00;1.00;;;;;;5070775;28;20419;-77
2023/08/07 06:03:43;;;;;;;8.33;1.17;;;14.20;27.30;;;;;;5069300;28;20977;-78
2023/08/07 06:06:09;;;;;;;4.70;0.80;;;14.40;1.00;;;;;;5067448;28;20395;-75
2023/08/07 06:08:34;;;;;;;15.57;1.77;;;14.40;99.90;;;;;;5071197;28;20910;-77
2023/08/07 06:11:03;;;;;;;4.57;0.90;;;14.20;1.00;;;;;;5070451;28;20407;-77
2023/08/07 06:13:29;;;;;;;5.30;1.20;;;14.20;1.00;;;;;;5071888;28;20431;-77
2023/08/07 06:15:54;;;;;;;4.93;0.80;;;14.20;1.00;;;;;;5072687;28;20395;-77
2023/08/07 06:18:20;;;;;;;4.53;0.87;;;14.20;1.00;;;;;;5073650;28;20384;-78
2023/08/07 06:20:46;;;;;;;6.70;1.00;;;14.20;99.90;;;;;;5074907;28;20396;-78
2023/08/07 06:23:12;;;;;;;5.40;1.00;;;14.20;99.90;;;;;;5074922;28;20483;-79
2023/08/07 06:25:37;;;;;;;6.97;1.20;;;14.30;1.00;;;;;;5074731;28;20380;-78
2023/08/07 06:28:03;;;;;;;5.00;1.10;;;14.70;1.00;;;;;;5095203;28;20492;-78
2023/08/07 06:30:30;;;;;;;5.00;1.10;;;15.70;89.50;;;;;;5093727;28;20803;-79
2023/08/07 06:32:56;;;;;;;6.27;1.30;;;16.50;1.00;;;;;;5082747;28;20442;-78
2023/08/07 06:35:22;;;;;;;6.03;0.88;;;17.00;99.90;;;;;;5073728;28;20439;-78
2023/08/07 06:37:48;;;;;;;4.78;0.98;;;16.40;99.90;;;;;;5079678;28;20412;-78
2023/08/07 06:40:14;;;;;;;5.80;0.80;;;16.50;99.90;;;;;;5082221;28;20510;-78
2023/08/07 06:42:39;;;;;;;4.70;0.70;;;16.20;99.90;;;;;;5058668;28;20402;-78
2023/08/07 06:45:06;;;;;;;5.28;0.90;;;16.20;99.90;;;;;;5074522;28;20399;-78
2023/08/07 06:47:32;;;;;;;5.57;1.20;;;15.70;99.90;;;;;;5075341;28;20469;-78
2023/08/07 06:49:58;;;;;;;7.82;0.90;;;15.60;99.90;;;;;;5074680;28;20396;-78
2023/08/07 06:52:24;;;;;;;4.60;0.90;;;15.50;99.90;;;;;;5072054;28;20392;-78
2023/08/07 06:54:49;;;;;;;4.93;0.93;;;15.00;99.90;;;;;;5051680;28;20391;-77
2023/08/07 06:57:15;;;;;;;5.63;0.80;;;15.00;99.90;;;;;;5070066;28;20422;-78
2023/08/07 06:59:40;;;;;;;4.40;0.60;;;15.10;99.90;;;;;;5069425;28;20411;-77
2023/08/07 07:02:06;;;;;;;4.23;0.50;;;14.90;99.90;;;;;;5081665;28;20467;-78
2023/08/07 07:04:32;;;;;;;12.27;1.00;;;15.20;99.90;;;;;;5084712;28;20417;-78
2023/08/07 07:06:58;;;;;;;4.55;0.70;;;15.20;99.90;;;;;;5067632;28;20777;-78
2023/08/07 07:09:24;;;;;;;4.67;0.73;;;15.10;99.90;;;;;;5087334;28;20409;-77
2023/08/07 07:11:49;;;;;;;5.43;1.00;;;15.50;99.90;;;;;;5088535;28;20743;-78
2023/08/07 07:14:15;;;;;;;6.20;1.20;;;15.60;99.90;;;;;;5078474;28;20881;-78
2023/08/07 07:16:42;;;;;;;4.93;0.93;;;15.60;99.90;;;;;;5087538;28;20482;-78
2023/08/07 07:19:09;;;;;;;5.20;1.37;;;14.90;99.90;;;;;;5069932;28;20498;-77
2023/08/07 07:21:34;;;;;;;6.75;1.13;;;14.80;99.90;;;;;;5087536;28;20404;-78
2023/08/07 07:24:01;;;;;;;5.20;0.95;;;15.00;99.90;;;;;;5084965;28;20410;-78
2023/08/07 07:26:26;;;;;;;5.07;0.80;;;15.10;99.90;;;;;;5089126;28;20396;-77
2023/08/07 07:28:52;;;;;;;4.70;0.73;;;14.80;99.90;;;;;;5069670;28;20405;-78
2023/08/07 07:31:17;;;;;;;4.57;0.80;;;14.80;99.90;;;;;;5087187;28;20410;-78
2023/08/07 07:33:43;;;;;;;4.60;0.70;;;14.60;99.90;;;;;;5086897;28;20826;-77
2023/08/07 07:36:17;;;;;;;5.20;1.08;;;14.60;99.90;;;;;;5086934;28;20421;-78
2023/08/07 07:38:43;;;;;;;4.60;1.00;;;14.70;1.00;;;;;;5088462;28;21027;-78
2023/08/07 07:41:11;;;;;;;4.70;0.90;;;14.60;99.90;;;;;;5073764;28;20496;-77
2023/08/07 07:43:36;;;;;;;5.50;0.90;;;14.70;99.90;;;;;;5084431;28;20420;-77
2023/08/07 07:46:02;;;;;;;5.55;1.15;;;14.70;99.90;;;;;;5087120;28;20401;-77
2023/08/07 07:48:28;;;;;;;5.10;0.90;;;15.00;1.30;;;;;;5084543;28;20410;-78
2023/08/07 07:50:59;;;;;;;5.60;0.80;;;15.10;1.00;;;;;;5086485;28;20520;-77
2023/08/07 07:53:24;;;;;;;5.00;0.90;;;15.00;1.00;;;;;;5088397;28;20424;-77
2023/08/07 07:55:50;;;;;;;4.85;0.90;;;15.10;1.00;;;;;;5086881;28;20409;-77
2023/08/07 07:58:15;;;;;;;5.70;1.10;;;15.20;1.00;;;;;;5092575;28;20402;-77
2023/08/07 08:00:42;;;;;;;6.40;1.20;;;15.20;99.90;;;;;;5067739;28;20398;-77
2023/08/07 08:03:08;;;;;;;6.00;1.50;;;15.20;99.90;;;;;;5067840;28;20398;-77
2023/08/07 08:05:34;;;;;;;6.75;1.05;;;15.30;99.90;;;;;;5068034;28;20478;-78
2023/08/07 08:08:01;;;;;;;9.43;1.42;;;15.20;99.90;;;;;;5068753;28;20393;-77
2023/08/07 08:10:27;;;;;;;5.00;0.95;;;15.30;99.90;;;;;;5067796;28;20463;-78
2023/08/07 08:12:56;;;;;;;11.50;1.20;;;15.40;99.90;;;;;;5067692;28;20495;-77
2023/08/07 08:15:21;;;;;;;4.43;0.77;;;15.50;99.90;;;;;;5067738;28;20434;-77
2023/08/07 08:17:48;;;;;;;5.05;1.20;;;15.50;99.90;;;;;;5067860;28;20880;-78
2023/08/07 08:20:15;;;;;;;6.00;0.90;;;15.40;99.90;;;;;;5067430;28;20396;-78
2023/08/07 08:22:41;;;;;;;5.28;1.55;;;15.40;99.90;;;;;;5067863;28;20449;-78
2023/08/07 08:25:07;;;;;;;5.00;1.20;;;15.60;99.90;;;;;;5067654;28;20392;-78
2023/08/07 08:27:32;;;;;;;5.00;0.98;;;15.60;99.90;;;;;;5067663;28;20729;-78
2023/08/07 08:29:58;;;;;;;4.77;0.90;;;15.60;99.90;;;;;;5068214;28;20396;-77
2023/08/07 08:32:23;;;;;;;4.50;0.70;;;15.80;99.90;;;;;;5066719;28;20415;-78
2023/08/07 08:34:49;;;;;;;5.30;1.10;;;15.80;99.90;;;;;;5067599;28;20433;-77
2023/08/07 08:37:15;;;;;;;4.80;0.90;;;15.90;89.20;;;;;;5067623;28;20433;-77
2023/08/07 08:39:41;;;;;;;5.40;1.00;;;16.60;32.60;;;;;;5051348;28;20876;-78
2023/08/07 08:42:10;;;;;;;4.93;0.90;;;17.60;1.00;;;;;;5065758;28;20442;-79
2023/08/07 08:44:39;;;;;;;4.93;0.93;;;17.90;1.00;;;;;;5060269;28;20452;-77
2023/08/07 08:47:06;;;;;;;5.18;1.10;;;17.70;1.00;;;;;;5067536;28;20453;-77
2023/08/07 08:49:36;;;;;;;4.70;0.80;;;17.10;1.00;;;;;;5062754;28;20399;-77
2023/08/07 08:52:03;;;;;;;5.05;0.90;;;16.80;1.00;;;;;;5072341;28;20426;-77
2023/08/07 08:54:28;;;;;;;7.20;1.00;;;16.70;1.00;;;;;;5071754;28;20748;-77
2023/08/07 08:56:56;;;;;;;6.60;0.90;;;16.70;1.00;;;;;;5071497;28;20384;-77
2023/08/07 08:59:22;;;;;;;4.90;0.73;;;16.60;1.00;;;;;;5075143;28;20410;-77
2023/08/07 09:01:50;;;;;;;5.30;0.90;;;16.70;1.00;;;;;;5089353;28;20409;-77
2023/08/07 09:04:17;;;;;;;4.60;0.85;;;16.70;1.00;;;;;;5091221;28;20468;-77
2023/08/07 09:06:43;;;;;;;5.20;0.95;;;16.70;1.00;;;;;;5091361;28;20457;-77
2023/08/07 09:09:11;;;;;;;5.50;0.80;;;16.70;1.00;;;;;;5073004;28;20612;-77
2023/08/07 09:11:37;;;;;;;5.20;0.90;;;16.70;1.00;;;;;;5070992;28;20403;-78
2023/08/07 09:14:03;;;;;;;5.50;1.10;;;16.70;1.00;;;;;;5070686;28;20450;-77
2023/08/07 09:16:30;;;;;;;5.20;0.80;;;16.80;1.00;;;;;;5075047;28;20390;-77
2023/08/07 09:18:56;;;;;;;4.70;0.65;;;17.10;1.00;;;;;;5089029;28;20402;-77
2023/08/07 09:21:21;;;;;;;6.20;0.90;;;17.00;1.00;;;;;;5091098;28;20398;-77
2023/08/07 09:23:47;;;;;;;5.30;1.10;;;17.20;1.00;;;;;;5090976;28;21208;-77
2023/08/07 09:26:12;;;;;;;5.00;0.70;;;17.40;1.00;;;;;;5088176;28;20394;-77
2023/08/07 09:28:38;;;;;;;8.23;1.20;;;17.60;1.00;;;;;;5091202;28;20788;-77
2023/08/07 09:31:08;;;;;;;6.23;0.97;;;17.60;1.00;;;;;;5090748;28;20382;-77
2023/08/07 09:33:34;;;;;;;7.47;0.98;;;17.50;1.00;;;;;;5081833;28;20436;-77
2023/08/07 09:36:01;;;;;;;5.43;1.10;;;17.70;1.00;;;;;;5074947;28;20445;-77
2023/08/07 09:38:32;;;;;;;4.50;0.60;;;17.90;1.00;;;;;;5090592;28;20382;-77
2023/08/07 09:41:03;;;;;;;4.60;0.80;;;17.90;1.00;;;;;;5088245;28;20762;-77
2023/08/07 09:43:29;;;;;;;5.95;1.27;;;17.60;1.00;;;;;;5091235;28;20390;-78
2023/08/07 09:46:17;;;;;;;4.72;0.70;;;17.30;1.00;;;;;;5074722;28;20492;-77
2023/08/07 09:48:43;;;;;;;5.28;1.00;;;17.40;1.00;;;;;;5070008;28;20549;-77
2023/08/07 09:51:10;;;;;;;5.07;1.20;;;17.50;1.00;;;;;;5074984;28;20857;-77
2023/08/07 09:53:35;;;;;;;4.95;0.80;;;17.80;1.00;;;;;;5087390;28;20529;-77
2023/08/07 09:56:01;;;;;;;5.60;0.90;;;18.10;1.00;;;;;;5091358;28;20465;-77
2023/08/07 09:58:28;;;;;;;9.80;1.20;;;18.20;1.00;;;;;;5090731;28;20378;-77
2023/08/07 10:00:55;;;;;;;5.10;0.80;;;18.50;1.00;;;;;;5072155;28;20498;-77
2023/08/07 10:03:22;;;;;;;5.20;1.20;;;18.20;1.00;;;;;;5049922;28;20769;-77
2023/08/07 10:05:48;;;;;;;7.87;1.30;;;18.40;1.00;;;;;;5050033;28;20470;-77
2023/08/07 10:08:14;;;;;;;5.93;1.30;;;18.60;1.00;;;;;;5050155;28;20394;-77
2023/08/07 10:10:40;;;;;;;5.47;1.15;;;18.60;1.00;;;;;;5064395;28;20405;-77
2023/08/07 10:13:05;;;;;;;5.93;1.30;;;18.30;99.90;;;;;;5069335;28;20495;-77
2023/08/07 10:15:33;;;;;;;5.53;1.23;;;18.60;99.90;;;;;;5069847;28;20440;-77
2023/08/07 10:17:59;;;;;;;5.10;1.10;;;18.60;99.90;;;;;;5072763;28;20445;-77
2023/08/07 10:20:29;;;;;;;5.27;1.10;;;18.50;99.90;;;;;;5069550;28;20392;-77
2023/08/07 10:23:07;;;;;;;4.68;0.80;;;18.50;99.90;;;;;;5069485;28;20562;-77
2023/08/07 10:25:34;;;;;;;5.50;0.80;;;18.50;99.90;;;;;;5069492;28;20396;-78
2023/08/07 10:28:01;;;;;;;5.70;1.40;;;18.40;99.90;;;;;;5069709;28;20399;-77
2023/08/07 10:30:27;;;;;;;6.30;0.90;;;18.40;99.90;;;;;;5069220;28;20419;-78
2023/08/07 10:32:54;;;;;;;9.90;1.10;;;18.00;99.90;;;;;;5069288;28;20406;-78
2023/08/07 10:35:29;;;;;;;5.20;1.00;;;18.20;99.90;;;;;;5069261;28;20412;-78
2023/08/07 10:38:04;;;;;;;4.93;0.98;;;18.30;99.90;;;;;;5069349;28;20391;-78
2023/08/07 10:40:31;;;;;;;5.53;1.15;;;18.20;99.90;;;;;;5069821;28;20391;-79
2023/08/07 10:42:59;;;;;;;4.90;0.90;;;17.80;99.90;;;;;;5068945;28;20891;-78
2023/08/07 10:45:28;;;;;;;5.60;1.10;;;17.50;99.90;;;;;;5069211;28;20434;-77
2023/08/07 10:48:11;;;;;;;6.40;1.00;;;17.50;99.90;;;;;;5084734;28;20390;-77
2023/08/07 10:51:03;;;;;;;5.72;0.85;;;17.40;99.90;;;;;;5089146;28;20465;-77
2023/08/07 10:53:37;;;;;;;5.40;0.93;;;17.40;99.90;;;;;;5084465;28;20470;-77
2023/08/07 10:56:09;;;;;;;5.88;1.40;;;17.40;99.90;;;;;;5089134;28;20491;-77
2023/08/07 10:58:37;;;;;;;4.87;0.80;;;17.30;99.90;;;;;;5088994;28;20393;-77
2023/08/07 11:01:30;;;;;;;4.80;0.88;;;17.10;99.90;;;;;;5076935;28;20393;-77
2023/08/07 11:04:00;;;;;;;4.60;0.77;;;17.20;99.90;;;;;;5068594;28;20400;-77
2023/08/07 11:06:33;;;;;;;6.00;1.03;;;17.20;99.90;;;;;;5069503;28;20390;-77
2023/08/07 11:09:03;;;;;;;5.50;1.10;;;17.00;99.90;;;;;;5068087;28;20425;-77
2023/08/07 11:11:44;;;;;;;6.00;1.25;;;16.80;99.90;;;;;;5069353;28;20395;-77
2023/08/07 11:14:13;;;;;;;8.55;1.38;;;16.70;99.90;;;;;;5071812;28;20481;-77
2023/08/07 11:16:39;;;;;;;6.78;1.52;;;16.90;99.90;;;;;;5072684;28;20516;-77
2023/08/07 11:19:05;;;;;;;5.47;1.10;;;16.90;99.90;;;;;;5068525;28;20939;-77
2023/08/07 11:21:31;;;;;;;5.50;1.10;;;17.00;99.90;;;;;;5068844;28;20395;-77
2023/08/07 11:23:57;;;;;;;6.20;1.20;;;17.00;99.90;;;;;;5068983;28;20384;-77
2023/08/07 11:26:24;;;;;;;5.60;1.10;;;17.10;99.90;;;;;;5068228;28;20396;-77
2023/08/07 11:28:50;;;;;;;6.45;1.30;;;17.30;99.90;;;;;;5067984;28;20409;-77
2023/08/07 11:31:20;;;;;;;7.68;1.15;;;17.60;99.90;;;;;;5068032;28;20855;-77
2023/08/07 11:33:45;;;;;;;6.47;1.67;;;18.00;99.90;;;;;;5068042;28;20416;-77
2023/08/07 11:36:12;;;;;;;5.30;1.20;;;18.30;99.90;;;;;;5067948;28;20436;-77
2023/08/07 11:38:44;;;;;;;4.70;0.75;;;18.20;99.90;;;;;;5068200;28;20396;-77
2023/08/07 11:41:11;;;;;;;5.88;1.50;;;17.80;99.90;;;;;;5068160;28;20395;-77
2023/08/07 11:43:37;;;;;;;6.70;1.42;;;17.70;99.90;;;;;;5067427;28;20400;-77
2023/08/07 11:46:04;;;;;;;6.57;1.40;;;17.40;99.90;;;;;;5068167;28;20386;-77
2023/08/07 11:48:32;;;;;;;5.60;1.27;;;17.20;99.90;;;;;;5067785;28;20402;-77
2023/08/07 11:50:59;;;;;;;8.90;1.17;;;17.10;99.90;;;;;;5076093;28;20510;-77
2023/08/07 11:53:26;;;;;;;5.07;0.80;;;17.10;99.90;;;;;;5067627;28;20429;-77
2023/08/07 11:55:59;;;;;;;5.80;1.20;;;17.20;99.90;;;;;;5067557;28;20990;-77
2023/08/07 11:58:32;;;;;;;4.90;1.20;;;17.30;99.90;;;;;;5066938;28;20498;-77
2023/08/07 12:00:58;;;;;;;5.70;1.40;;;17.10;99.90;;;;;;5068052;28;20895;-77
2023/08/07 12:03:36;;;;;;;4.83;0.90;;;17.10;99.90;;;;;;5067400;28;20388;-77
2023/08/07 12:06:03;;;;;;;5.32;1.20;;;17.20;1.00;;;;;;5067670;28;20395;-77
2023/08/07 12:08:37;;;;;;;7.18;1.50;;;17.50;1.00;;;;;;5068207;28;20392;-77
2023/08/07 12:11:11;;;;;;;4.90;0.80;;;17.40;99.90;;;;;;5067628;28;20387;-77
2023/08/07 12:13:41;;;;;;;5.00;1.00;;;17.40;99.90;;;;;;5067306;28;20460;-77
2023/08/07 12:16:08;;;;;;;5.28;1.40;;;17.60;99.90;;;;;;5049429;28;20780;-77
2023/08/07 12:18:35;;;;;;;5.15;1.02;;;17.60;99.90;;;;;;5087729;28;20386;-77
2023/08/07 12:21:04;;;;;;;4.90;1.10;;;17.50;99.90;;;;;;5088321;28;20425;-76
2023/08/07 12:23:33;;;;;;;4.75;1.00;;;17.80;99.90;;;;;;5087843;28;20392;-76
2023/08/07 12:25:59;;;;;;;5.75;1.40;;;18.10;1.00;;;;;;5075983;28;20748;-76
2023/08/07 12:28:25;;;;;;;5.83;1.33;;;18.20;1.00;;;;;;5067456;28;20399;-77
2023/08/07 12:30:51;;;;;;;5.10;1.10;;;17.80;1.00;;;;;;5076210;28;20457;-77
2023/08/07 12:33:17;;;;;;;5.78;1.40;;;17.60;1.00;;;;;;5067274;28;20835;-77
2023/08/07 12:35:42;;;;;;;6.95;1.50;;;17.80;1.00;;;;;;5070757;28;20980;-78
2023/08/07 12:38:09;;;;;;;5.47;1.30;;;18.20;1.00;;;;;;5069441;28;20445;-79
2023/08/07 12:40:38;;;;;;;5.90;1.20;;;18.20;1.00;;;;;;5053201;28;20400;-79
2023/08/07 12:43:06;;;;;;;7.43;1.25;;;18.40;1.00;;;;;;5069146;28;20418;-79
2023/08/07 12:45:32;;;;;;;6.70;1.20;;;18.60;1.00;;;;;;5042408;28;20971;-80
2023/08/07 12:47:58;;;;;;;5.22;1.30;;;18.70;1.00;;;;;;5074304;28;20478;-79
2023/08/07 12:50:23;;;;;;;6.03;1.02;;;18.80;1.00;;;;;;5064385;28;20404;-79
2023/08/07 12:52:49;;;;;;;5.80;1.10;;;18.80;1.00;;;;;;5065494;28;20410;-78